Terminal Aerodrome Forecast
Issued by NWS Cleveland, OH

Home | Current Version | Previous Version | Text Only | Print | Product List | Glossary On
Versions: 1 2 3 4 5 6 7 8 9 10 11 12
000
FTUS41 KCLE 242300
TAFTOL
TAF
KTOL 242330Z 2500/2524 35005KT P6SM OVC250
     FM250200 08005KT P6SM OVC100
     FM250700 08005KT P6SM -RA OVC050
     FM251100 07010KT P6SM OVC100
     FM251900 08010G20KT 4SM -RA OVC035=

USA.gov is the U.S. government's official web portal to all federal, state and local government web resources and services.